Time;durP1;ratioP1;P1;durP2;ratioP2;P2;SDS_P1;SDS_P2;PMS_P1;PMS_P2;Temp;Humidity;BMP_temperature;BMP_pressure;BME280_temperature;BME280_humidity;BME280_pressure;Samples;Min_cycle;Max_cycle;Signal;HPM_P1;HPM_P2
2023/05/11 00:00:08;;;;;;;3.22;2.17;;;12.70;99.90;;;;;;4956292;29;20027;-78
2023/05/11 00:02:35;;;;;;;1.70;1.60;;;12.60;99.90;;;;;;4955337;29;20500;-79
2023/05/11 00:05:00;;;;;;;4.65;2.08;;;12.60;99.90;;;;;;4957360;29;20086;-79
2023/05/11 00:07:26;;;;;;;2.22;2.00;;;12.50;99.90;;;;;;4955812;29;20031;-79
2023/05/11 00:09:52;;;;;;;4.28;1.73;;;12.60;99.90;;;;;;4956294;29;20019;-78
2023/05/11 00:12:17;;;;;;;7.93;1.98;;;12.60;99.90;;;;;;4957263;28;20105;-78
2023/05/11 00:14:43;;;;;;;1.83;1.45;;;12.50;99.90;;;;;;4956799;29;20035;-78
2023/05/11 00:17:10;;;;;;;1.48;1.38;;;12.50;99.90;;;;;;4955734;29;20039;-79
2023/05/11 00:19:36;;;;;;;3.40;2.28;;;12.50;99.90;;;;;;4956094;29;20035;-78
2023/05/11 00:22:02;;;;;;;4.78;1.63;;;12.40;99.90;;;;;;4957026;29;20038;-79
2023/05/11 00:24:28;;;;;;;1.88;1.77;;;12.40;99.90;;;;;;4957113;28;20118;-79
2023/05/11 00:26:54;;;;;;;1.95;1.75;;;12.40;99.90;;;;;;4956319;28;20031;-79
2023/05/11 00:29:20;;;;;;;3.75;1.95;;;12.40;99.90;;;;;;4957368;28;20045;-78
2023/05/11 00:31:49;;;;;;;2.03;1.73;;;12.40;99.90;;;;;;4955742;29;20024;-79
2023/05/11 00:34:16;;;;;;;6.15;2.28;;;12.50;99.90;;;;;;4957061;28;20020;-79
2023/05/11 00:36:42;;;;;;;3.50;1.60;;;12.30;99.90;;;;;;4956906;29;20357;-78
2023/05/11 00:39:11;;;;;;;3.92;1.83;;;12.40;99.90;;;;;;4956603;29;20023;-79
2023/05/11 00:41:37;;;;;;;2.95;1.77;;;12.30;99.90;;;;;;4955730;29;20027;-79
2023/05/11 00:44:03;;;;;;;2.65;1.80;;;12.40;99.90;;;;;;4955063;28;20020;-78
2023/05/11 00:46:29;;;;;;;2.17;1.38;;;12.40;99.90;;;;;;4956920;29;20023;-78
2023/05/11 00:48:55;;;;;;;1.92;1.70;;;12.50;99.90;;;;;;4956583;28;20106;-79
2023/05/11 00:51:21;;;;;;;5.40;1.55;;;12.40;99.90;;;;;;4955447;29;20074;-78
2023/05/11 00:53:48;;;;;;;1.98;1.67;;;12.30;99.90;;;;;;4955178;29;20020;-79
2023/05/11 00:56:14;;;;;;;3.40;2.28;;;12.30;99.90;;;;;;4955194;29;20023;-79
2023/05/11 00:58:40;;;;;;;3.28;1.77;;;12.20;99.90;;;;;;4955072;29;20031;-79
2023/05/11 01:01:05;;;;;;;2.63;1.73;;;12.10;99.90;;;;;;4955067;29;20027;-79
2023/05/11 01:03:33;;;;;;;2.42;2.00;;;12.10;99.90;;;;;;4956258;29;20035;-79
2023/05/11 01:06:35;;;;;;;2.05;1.52;;;12.10;99.90;;;;;;4954929;29;20090;-78
2023/05/11 01:09:28;;;;;;;2.80;1.67;;;12.10;99.90;;;;;;4954534;29;20121;-78
2023/05/11 01:12:07;;;;;;;4.43;1.83;;;12.10;99.90;;;;;;4956535;29;20035;-79
2023/05/11 01:15:09;;;;;;;1.92;1.73;;;12.10;99.90;;;;;;4954671;29;20046;-78
2023/05/11 01:17:44;;;;;;;2.92;1.90;;;12.00;99.90;;;;;;4955157;28;20034;-78
2023/05/11 01:20:16;;;;;;;2.72;1.90;;;11.90;99.90;;;;;;4955989;29;20382;-78
2023/05/11 01:22:55;;;;;;;1.65;1.52;;;11.80;99.90;;;;;;4956087;28;20050;-78
2023/05/11 01:26:01;;;;;;;1.88;1.67;;;11.80;99.90;;;;;;4955413;28;20428;-79
2023/05/11 01:28:51;;;;;;;2.03;1.67;;;11.70;99.90;;;;;;4954372;29;20023;-78
2023/05/11 01:31:18;;;;;;;2.55;2.22;;;11.70;99.90;;;;;;4956051;29;20480;-79
2023/05/11 01:33:54;;;;;;;2.13;1.70;;;11.70;99.90;;;;;;4954618;29;20232;-78
2023/05/11 01:36:22;;;;;;;5.05;1.80;;;11.70;99.90;;;;;;4954376;29;20026;-78
2023/05/11 01:38:50;;;;;;;2.33;2.13;;;11.70;99.90;;;;;;4954855;28;20117;-78
2023/05/11 01:41:18;;;;;;;3.22;1.90;;;11.70;99.90;;;;;;4955637;28;20027;-79
2023/05/11 01:43:52;;;;;;;2.83;1.75;;;11.70;99.90;;;;;;4955702;28;20031;-79
2023/05/11 01:46:22;;;;;;;5.40;1.90;;;11.70;99.90;;;;;;4954179;29;20297;-79
2023/05/11 01:48:51;;;;;;;2.42;1.77;;;11.70;99.90;;;;;;4955568;28;20058;-79
2023/05/11 01:51:18;;;;;;;2.00;1.80;;;11.70;99.90;;;;;;4955612;28;20023;-79
2023/05/11 01:53:45;;;;;;;2.85;1.65;;;11.70;99.90;;;;;;4954272;29;20114;-79
2023/05/11 01:56:11;;;;;;;1.65;1.55;;;11.70;99.90;;;;;;4954103;29;20166;-79
2023/05/11 01:58:39;;;;;;;2.17;1.70;;;11.70;99.90;;;;;;4955372;29;20063;-78
2023/05/11 02:01:05;;;;;;;1.65;1.55;;;11.80;99.90;;;;;;4955555;29;20031;-78
2023/05/11 02:03:34;;;;;;;2.00;1.77;;;11.90;99.90;;;;;;4953990;29;20034;-78
2023/05/11 02:06:02;;;;;;;2.45;1.35;;;11.80;99.90;;;;;;4954072;29;20110;-78
2023/05/11 02:08:30;;;;;;;4.88;2.30;;;11.80;99.90;;;;;;4954109;28;20027;-79
2023/05/11 02:10:57;;;;;;;4.13;1.60;;;11.80;99.90;;;;;;4954373;29;20028;-78
2023/05/11 02:13:23;;;;;;;1.85;1.63;;;11.80;99.90;;;;;;4955495;28;20654;-78
2023/05/11 02:15:53;;;;;;;5.60;2.03;;;11.90;99.90;;;;;;4954184;29;20026;-78
2023/05/11 02:18:19;;;;;;;3.13;1.77;;;11.90;99.90;;;;;;4953805;29;20105;-79
2023/05/11 02:20:46;;;;;;;2.05;1.85;;;11.80;99.90;;;;;;4953868;28;20047;-79
2023/05/11 02:23:13;;;;;;;4.25;1.83;;;11.80;99.90;;;;;;4953639;29;20377;-78
2023/05/11 02:25:40;;;;;;;2.13;1.80;;;11.80;99.90;;;;;;4954994;28;20079;-79
2023/05/11 02:28:06;;;;;;;5.25;2.70;;;11.80;99.90;;;;;;4953818;29;20031;-79
2023/05/11 02:30:46;;;;;;;4.00;1.90;;;11.80;99.90;;;;;;4953650;29;20024;-78
2023/05/11 02:33:18;;;;;;;2.13;1.77;;;11.80;99.90;;;;;;4953939;29;20075;-78
2023/05/11 02:35:45;;;;;;;2.83;1.77;;;11.80;99.90;;;;;;4953469;29;20444;-79
2023/05/11 02:38:13;;;;;;;2.42;2.03;;;11.80;99.90;;;;;;4952925;29;20578;-78
2023/05/11 02:40:47;;;;;;;3.95;2.20;;;11.90;99.90;;;;;;4954826;29;20054;-78
2023/05/11 02:43:19;;;;;;;3.13;1.90;;;11.80;99.90;;;;;;4953467;29;20078;-78
2023/05/11 02:45:46;;;;;;;3.75;1.67;;;11.80;99.90;;;;;;4953583;29;20031;-78
2023/05/11 02:48:20;;;;;;;3.15;1.73;;;11.80;99.90;;;;;;4954959;29;20507;-79
2023/05/11 02:50:47;;;;;;;2.67;1.83;;;11.80;99.90;;;;;;4957008;28;20089;-78
2023/05/11 02:53:15;;;;;;;3.45;1.48;;;11.90;99.90;;;;;;4957639;28;20027;-78
2023/05/11 02:55:41;;;;;;;4.22;2.35;;;12.00;99.90;;;;;;4957819;29;20130;-78
2023/05/11 02:58:07;;;;;;;2.55;1.73;;;12.00;99.90;;;;;;4957704;29;20027;-78
2023/05/11 03:00:33;;;;;;;5.32;2.58;;;11.90;99.90;;;;;;4957415;29;20050;-79
2023/05/11 03:02:59;;;;;;;2.50;2.05;;;11.90;99.90;;;;;;4957232;29;20395;-79
2023/05/11 03:05:25;;;;;;;4.63;2.08;;;11.90;99.90;;;;;;4957214;29;20042;-79
2023/05/11 03:07:55;;;;;;;3.03;1.67;;;11.90;99.90;;;;;;4956917;29;20035;-78
2023/05/11 03:10:22;;;;;;;2.45;2.25;;;11.90;99.90;;;;;;4957366;29;20028;-79
2023/05/11 03:12:48;;;;;;;2.60;1.80;;;11.90;99.90;;;;;;4958646;29;20015;-78
2023/05/11 03:15:14;;;;;;;1.75;1.52;;;12.00;99.90;;;;;;4958214;29;20020;-78
2023/05/11 03:17:41;;;;;;;2.80;1.85;;;11.90;99.90;;;;;;4958771;29;20035;-79
2023/05/11 03:20:08;;;;;;;2.92;1.73;;;11.90;99.90;;;;;;4957243;29;20027;-78
2023/05/11 03:22:35;;;;;;;3.55;1.90;;;11.80;99.90;;;;;;4956542;29;20038;-78
2023/05/11 03:25:03;;;;;;;3.85;1.70;;;11.80;99.90;;;;;;4958308;28;20031;-78
2023/05/11 03:27:30;;;;;;;5.82;1.90;;;11.80;99.90;;;;;;4957314;29;20030;-78
2023/05/11 03:29:57;;;;;;;4.60;1.98;;;11.80;99.90;;;;;;4957237;29;20028;-78
2023/05/11 03:32:23;;;;;;;5.88;1.73;;;11.80;99.90;;;;;;4956866;29;20506;-79
2023/05/11 03:34:49;;;;;;;2.90;1.60;;;11.80;99.90;;;;;;4957844;29;20015;-78
2023/05/11 03:37:17;;;;;;;2.05;1.35;;;11.80;99.90;;;;;;4957495;29;20039;-78
2023/05/11 03:39:47;;;;;;;9.70;2.00;;;11.80;99.90;;;;;;4958057;29;20054;-78
2023/05/11 03:42:18;;;;;;;3.65;1.60;;;11.80;99.90;;;;;;4956375;29;20028;-78
2023/05/11 03:44:46;;;;;;;2.88;1.65;;;11.90;99.90;;;;;;4958300;29;20035;-79
2023/05/11 03:47:14;;;;;;;2.95;1.95;;;11.80;99.90;;;;;;4958345;29;20027;-78
2023/05/11 03:49:41;;;;;;;3.20;2.30;;;12.10;99.90;;;;;;4957754;28;20023;-78
2023/05/11 03:52:08;;;;;;;3.00;1.52;;;13.20;99.90;;;;;;4957725;29;20463;-79
2023/05/11 03:54:35;;;;;;;4.72;1.67;;;13.90;99.90;;;;;;4959253;29;20023;-79
2023/05/11 03:57:00;;;;;;;10.48;1.58;;;13.90;99.90;;;;;;4956020;29;20031;-79
2023/05/11 03:59:26;;;;;;;8.45;1.60;;;14.40;99.90;;;;;;4956434;29;20019;-78
2023/05/11 04:01:52;;;;;;;2.80;1.20;;;14.60;99.80;;;;;;4955697;28;20485;-79
2023/05/11 04:04:31;;;;;;;1.90;1.52;;;14.50;98.10;;;;;;4955810;28;20031;-79
2023/05/11 04:06:57;;;;;;;1.30;1.20;;;14.40;98.20;;;;;;4956687;29;20038;-79
2023/05/11 04:09:23;;;;;;;1.92;1.33;;;14.60;98.50;;;;;;4956884;29;20042;-79
2023/05/11 04:11:49;;;;;;;1.30;1.20;;;14.80;97.50;;;;;;4956853;29;20482;-79
2023/05/11 04:14:16;;;;;;;2.50;1.27;;;14.80;96.40;;;;;;4956907;28;20038;-80
2023/05/11 04:16:42;;;;;;;1.30;1.08;;;15.00;96.40;;;;;;4956685;29;20481;-79
2023/05/11 04:19:08;;;;;;;1.05;0.93;;;14.80;95.70;;;;;;4955636;29;20027;-79
2023/05/11 04:21:34;;;;;;;1.83;1.05;;;14.90;95.50;;;;;;4956869;29;20497;-79
2023/05/11 04:24:00;;;;;;;2.85;1.52;;;15.00;95.90;;;;;;4955454;28;20035;-79
2023/05/11 04:26:26;;;;;;;1.83;1.13;;;15.00;95.30;;;;;;4955248;29;20019;-78
2023/05/11 04:28:51;;;;;;;2.13;1.60;;;14.90;95.10;;;;;;4955299;29;20023;-79
2023/05/11 04:31:17;;;;;;;2.33;1.45;;;14.80;95.00;;;;;;4955568;29;20027;-78
2023/05/11 04:33:43;;;;;;;1.77;1.35;;;15.10;94.70;;;;;;4955706;28;20023;-79
2023/05/11 04:36:08;;;;;;;3.67;1.42;;;14.80;94.70;;;;;;4957115;29;20030;-80
2023/05/11 04:38:34;;;;;;;1.95;1.35;;;14.90;94.90;;;;;;4956396;29;20033;-80
2023/05/11 04:41:07;;;;;;;4.28;1.27;;;14.70;94.90;;;;;;4955995;29;20118;-79
2023/05/11 04:43:33;;;;;;;1.67;1.27;;;14.30;94.50;;;;;;4956379;28;20054;-79
2023/05/11 04:45:59;;;;;;;1.52;1.42;;;14.20;96.30;;;;;;4956103;29;20027;-80
2023/05/11 04:48:25;;;;;;;1.70;1.25;;;14.50;95.90;;;;;;4954617;29;20034;-80
2023/05/11 04:50:53;;;;;;;3.35;1.50;;;14.30;95.90;;;;;;4956324;29;20175;-79
2023/05/11 04:53:19;;;;;;;5.82;1.45;;;14.60;96.10;;;;;;4954728;28;20078;-78
2023/05/11 04:55:44;;;;;;;2.22;2.03;;;14.70;94.50;;;;;;4954718;29;20039;-79
2023/05/11 04:58:10;;;;;;;4.15;1.45;;;14.70;95.10;;;;;;4955383;29;20420;-78
2023/05/11 05:00:36;;;;;;;2.40;1.27;;;15.00;94.70;;;;;;4955829;29;20484;-79
2023/05/11 05:03:02;;;;;;;5.00;1.40;;;14.90;93.40;;;;;;4954524;28;20038;-78
2023/05/11 05:05:28;;;;;;;2.45;1.40;;;14.60;94.40;;;;;;4954725;29;20489;-79
2023/05/11 05:07:53;;;;;;;2.85;1.52;;;14.40;94.50;;;;;;4955835;29;20139;-79
2023/05/11 05:10:20;;;;;;;3.13;1.50;;;14.50;94.70;;;;;;4955887;29;20055;-78
2023/05/11 05:12:46;;;;;;;4.32;1.70;;;14.50;95.20;;;;;;4954130;28;20489;-78
2023/05/11 05:15:12;;;;;;;3.63;1.05;;;14.60;95.00;;;;;;4954528;29;20095;-79
2023/05/11 05:17:38;;;;;;;1.77;1.13;;;14.80;94.30;;;;;;4955838;29;20031;-78
2023/05/11 05:20:04;;;;;;;2.05;1.33;;;14.90;94.00;;;;;;4954756;29;20485;-78
2023/05/11 05:22:30;;;;;;;2.30;1.80;;;14.20;94.10;;;;;;4954475;28;20027;-79
2023/05/11 05:24:56;;;;;;;1.95;1.73;;;14.00;94.90;;;;;;4955968;28;20031;-78
2023/05/11 05:27:22;;;;;;;2.72;1.33;;;13.80;95.40;;;;;;4956082;29;20030;-78
2023/05/11 05:29:48;;;;;;;3.45;1.73;;;13.70;96.40;;;;;;4955883;29;20031;-79
2023/05/11 05:32:13;;;;;;;3.45;1.67;;;13.50;96.20;;;;;;4954595;29;20030;-78
2023/05/11 05:34:39;;;;;;;2.28;2.08;;;13.30;96.70;;;;;;4954242;28;20028;-79
2023/05/11 05:37:05;;;;;;;2.05;1.38;;;13.10;97.30;;;;;;4955629;28;20110;-79
2023/05/11 05:39:30;;;;;;;1.70;1.50;;;13.00;98.00;;;;;;4954403;29;20023;-79
2023/05/11 05:41:56;;;;;;;3.35;1.83;;;13.00;98.00;;;;;;4954288;29;20170;-79
2023/05/11 05:44:22;;;;;;;1.63;1.52;;;13.10;97.80;;;;;;4954278;29;20023;-79
2023/05/11 05:46:47;;;;;;;5.88;2.20;;;13.10;97.50;;;;;;4955578;29;20050;-79
2023/05/11 05:49:13;;;;;;;3.15;1.45;;;13.20;97.80;;;;;;4954057;29;20118;-79
2023/05/11 05:51:39;;;;;;;2.28;1.98;;;13.10;97.80;;;;;;4955474;28;20031;-78
2023/05/11 05:54:05;;;;;;;6.32;1.92;;;13.10;97.80;;;;;;4954115;29;20031;-78
2023/05/11 05:56:33;;;;;;;1.30;1.20;;;13.20;98.10;;;;;;4953939;29;20138;-78
2023/05/11 05:58:59;;;;;;;7.38;2.35;;;13.00;97.70;;;;;;4954911;28;20024;-78
2023/05/11 06:01:25;;;;;;;2.88;1.50;;;13.00;97.80;;;;;;4955364;28;20035;-78
2023/05/11 06:03:51;;;;;;;4.07;1.58;;;13.10;98.00;;;;;;4955450;28;20027;-77
2023/05/11 06:06:17;;;;;;;2.42;1.80;;;13.20;98.10;;;;;;4955892;29;20030;-78
2023/05/11 06:08:42;;;;;;;2.65;1.80;;;13.30;97.80;;;;;;4953433;29;20031;-78
2023/05/11 06:11:08;;;;;;;1.83;1.70;;;13.30;97.00;;;;;;4954067;29;20091;-79
2023/05/11 06:13:34;;;;;;;2.92;1.33;;;13.30;96.80;;;;;;4953642;29;20023;-78
2023/05/11 06:16:00;;;;;;;2.75;2.10;;;13.30;97.00;;;;;;4954379;29;20051;-79
2023/05/11 06:18:26;;;;;;;2.30;1.67;;;13.50;96.20;;;;;;4952489;29;20121;-79
2023/05/11 06:20:52;;;;;;;4.45;1.50;;;13.60;96.30;;;;;;4954344;29;20492;-79
2023/05/11 06:23:17;;;;;;;1.83;1.48;;;13.60;96.20;;;;;;4953103;29;20066;-78
2023/05/11 06:25:43;;;;;;;1.85;1.65;;;13.80;95.50;;;;;;4952622;28;20058;-79
2023/05/11 06:28:09;;;;;;;1.55;1.45;;;13.70;95.60;;;;;;4954409;28;20034;-79
2023/05/11 06:30:35;;;;;;;1.67;1.30;;;13.70;95.40;;;;;;4954691;28;20106;-78
2023/05/11 06:33:00;;;;;;;2.72;1.77;;;13.70;95.10;;;;;;4953406;29;20353;-78
2023/05/11 06:35:26;;;;;;;3.58;1.83;;;13.70;95.90;;;;;;4953205;28;20507;-78
2023/05/11 06:37:51;;;;;;;1.58;1.13;;;13.60;95.30;;;;;;4954345;29;20027;-78
2023/05/11 06:40:17;;;;;;;4.70;2.33;;;13.60;95.90;;;;;;4953199;28;20462;-78
2023/05/11 06:42:43;;;;;;;1.77;1.67;;;13.50;95.20;;;;;;4953214;29;20495;-78
2023/05/11 06:45:09;;;;;;;4.30;1.63;;;13.60;95.50;;;;;;4953102;29;20117;-79
2023/05/11 06:47:35;;;;;;;1.48;1.30;;;13.70;95.70;;;;;;4954147;28;20024;-79
2023/05/11 06:50:01;;;;;;;2.65;1.70;;;13.70;95.30;;;;;;4954593;28;20019;-78
2023/05/11 06:52:26;;;;;;;2.80;1.60;;;13.60;95.40;;;;;;4953075;28;20023;-78
2023/05/11 06:54:52;;;;;;;1.92;1.60;;;13.60;95.00;;;;;;4952733;29;20115;-78
2023/05/11 06:57:17;;;;;;;3.85;1.67;;;13.50;95.40;;;;;;4952290;29;20484;-78
2023/05/11 06:59:43;;;;;;;1.50;1.40;;;13.60;95.60;;;;;;4954212;29;20031;-78
2023/05/11 07:02:09;;;;;;;14.63;2.22;;;13.80;95.60;;;;;;4953988;28;20035;-78
2023/05/11 07:04:36;;;;;;;2.17;1.77;;;14.00;95.30;;;;;;4954003;29;20340;-78
2023/05/11 07:07:02;;;;;;;2.95;1.58;;;14.20;95.10;;;;;;4952800;29;20559;-78
2023/05/11 07:09:28;;;;;;;2.25;1.55;;;14.20;93.90;;;;;;4954121;28;20392;-78
2023/05/11 07:11:54;;;;;;;1.92;1.75;;;14.30;94.20;;;;;;4952724;29;20023;-78
2023/05/11 07:14:19;;;;;;;4.28;1.67;;;14.30;93.40;;;;;;4952716;29;20062;-78
2023/05/11 07:16:45;;;;;;;4.32;1.90;;;14.50;94.10;;;;;;4954060;29;20059;-78
2023/05/11 07:19:11;;;;;;;5.43;1.92;;;14.60;93.30;;;;;;4953912;29;20035;-78
2023/05/11 07:21:36;;;;;;;1.73;1.30;;;14.60;92.80;;;;;;4952829;28;20024;-78
2023/05/11 07:24:02;;;;;;;1.50;1.40;;;14.70;92.70;;;;;;4952688;29;20151;-78
2023/05/11 07:26:28;;;;;;;1.35;1.20;;;14.70;92.60;;;;;;4952433;29;20028;-78
2023/05/11 07:28:54;;;;;;;2.35;1.45;;;14.90;92.20;;;;;;4952398;28;20476;-78
2023/05/11 07:31:20;;;;;;;2.20;2.00;;;14.90;92.20;;;;;;4952584;29;20023;-78
2023/05/11 07:33:46;;;;;;;2.03;1.60;;;14.90;92.40;;;;;;4953810;28;20469;-78
2023/05/11 07:36:11;;;;;;;2.33;1.75;;;14.90;92.20;;;;;;4954719;28;20028;-78
2023/05/11 07:38:37;;;;;;;2.28;1.60;;;15.10;91.80;;;;;;4957322;28;20099;-78
2023/05/11 07:41:03;;;;;;;5.03;2.17;;;14.90;91.50;;;;;;4957391;28;20027;-78
2023/05/11 07:43:29;;;;;;;1.55;1.45;;;15.00;92.50;;;;;;4956083;29;20480;-78
2023/05/11 07:45:54;;;;;;;2.30;1.98;;;15.10;91.40;;;;;;4955889;29;20061;-79
2023/05/11 07:48:21;;;;;;;2.20;1.67;;;15.10;91.60;;;;;;4955909;29;20031;-79
2023/05/11 07:50:48;;;;;;;2.38;2.17;;;15.10;92.20;;;;;;4956086;29;20447;-78
2023/05/11 07:53:14;;;;;;;2.53;1.95;;;15.20;91.70;;;;;;4955922;29;20502;-78
2023/05/11 07:55:40;;;;;;;1.65;1.52;;;15.20;92.50;;;;;;4957045;28;20475;-78
2023/05/11 07:58:06;;;;;;;3.92;1.67;;;15.20;92.10;;;;;;4956708;29;20038;-78
2023/05/11 08:00:32;;;;;;;1.73;1.33;;;14.90;92.10;;;;;;4955705;29;20427;-78
2023/05/11 08:02:57;;;;;;;2.45;1.67;;;14.80;92.50;;;;;;4955423;29;20034;-78
2023/05/11 08:05:23;;;;;;;3.25;1.95;;;14.70;92.70;;;;;;4955380;29;20027;-78
2023/05/11 08:07:49;;;;;;;2.70;1.67;;;14.50;92.80;;;;;;4955441;29;20027;-78
2023/05/11 08:10:14;;;;;;;8.63;2.08;;;14.60;93.00;;;;;;4955464;29;20514;-78
2023/05/11 08:12:40;;;;;;;3.13;1.67;;;14.70;93.30;;;;;;4955372;29;20110;-78
2023/05/11 08:15:06;;;;;;;2.33;1.80;;;14.80;93.40;;;;;;4956727;29;20019;-78
2023/05/11 08:17:32;;;;;;;2.63;1.60;;;14.60;93.20;;;;;;4955097;28;20031;-78
2023/05/11 08:19:57;;;;;;;1.77;1.63;;;14.60;93.60;;;;;;4956806;29;20403;-78
2023/05/11 08:22:23;;;;;;;3.20;1.80;;;14.70;93.60;;;;;;4956342;29;20308;-78
2023/05/11 08:24:52;;;;;;;2.83;1.70;;;14.70;93.60;;;;;;4956311;29;20034;-78
2023/05/11 08:27:17;;;;;;;2.33;1.45;;;14.70;93.70;;;;;;4956217;28;20030;-78
2023/05/11 08:29:43;;;;;;;4.40;1.95;;;14.70;93.40;;;;;;4955160;29;20023;-78
2023/05/11 08:32:09;;;;;;;4.00;1.80;;;14.80;93.60;;;;;;4956496;28;20023;-78
2023/05/11 08:34:34;;;;;;;3.28;1.73;;;14.80;93.80;;;;;;4954989;29;20031;-78
2023/05/11 08:37:00;;;;;;;5.43;1.70;;;15.00;93.60;;;;;;4954971;29;20056;-78
2023/05/11 08:39:27;;;;;;;2.25;1.83;;;14.80;93.70;;;;;;4956252;28;20445;-78
2023/05/11 08:41:58;;;;;;;2.40;1.70;;;14.90;93.90;;;;;;4954776;29;20030;-76
2023/05/11 08:44:26;;;;;;;1.98;1.70;;;14.90;93.80;;;;;;4955844;28;20082;-78
2023/05/11 08:46:52;;;;;;;7.50;2.05;;;15.20;94.70;;;;;;4955893;28;20433;-78
2023/05/11 08:49:18;;;;;;;2.25;2.00;;;15.60;94.00;;;;;;4957317;28;20039;-77
2023/05/11 08:51:45;;;;;;;2.22;1.70;;;15.80;92.90;;;;;;4955856;29;20027;-78
2023/05/11 08:54:11;;;;;;;2.83;1.90;;;15.90;92.30;;;;;;4956608;28;20030;-78
2023/05/11 08:56:40;;;;;;;6.65;1.90;;;15.90;92.50;;;;;;4954097;29;20035;-78
2023/05/11 08:59:06;;;;;;;7.65;2.08;;;16.00;91.90;;;;;;4955213;29;20031;-78
2023/05/11 09:01:34;;;;;;;3.65;1.83;;;16.00;91.90;;;;;;4955041;28;20027;-78
2023/05/11 09:04:00;;;;;;;3.63;2.25;;;15.80;91.80;;;;;;4955367;29;20039;-78
2023/05/11 09:06:27;;;;;;;1.70;1.52;;;15.80;91.90;;;;;;4955310;29;20059;-78
2023/05/11 09:08:53;;;;;;;4.57;1.90;;;16.00;92.20;;;;;;4955242;29;20467;-78
2023/05/11 09:11:21;;;;;;;4.65;1.77;;;16.20;91.70;;;;;;4956539;29;20023;-78
2023/05/11 09:13:48;;;;;;;2.15;1.80;;;16.20;91.20;;;;;;4956233;28;20031;-78
2023/05/11 09:16:13;;;;;;;2.90;1.95;;;16.10;91.30;;;;;;4954787;29;20030;-78
2023/05/11 09:18:50;;;;;;;4.70;2.15;;;16.00;91.60;;;;;;4956102;29;20492;-78
2023/05/11 09:21:16;;;;;;;5.90;1.70;;;16.00;91.40;;;;;;4955006;29;20041;-78
2023/05/11 09:23:42;;;;;;;2.58;1.90;;;16.00;91.80;;;;;;4956028;28;20039;-78
2023/05/11 09:26:23;;;;;;;3.35;1.80;;;15.90;91.60;;;;;;4955775;28;20026;-78
2023/05/11 09:28:49;;;;;;;9.45;2.42;;;15.70;92.30;;;;;;4954259;29;20027;-78
2023/05/11 09:31:36;;;;;;;2.85;2.05;;;15.90;92.40;;;;;;4955781;28;20023;-78
2023/05/11 09:34:13;;;;;;;4.40;2.15;;;15.80;91.90;;;;;;4955399;28;20027;-78
2023/05/11 09:36:47;;;;;;;4.38;2.70;;;16.00;92.30;;;;;;4953842;29;20027;-78
2023/05/11 09:39:14;;;;;;;4.40;2.77;;;15.90;91.90;;;;;;4954056;29;20031;-79
2023/05/11 09:41:40;;;;;;;5.50;2.08;;;16.00;92.80;;;;;;4954489;29;20117;-78
2023/05/11 09:44:13;;;;;;;2.65;2.10;;;15.90;92.80;;;;;;4954306;29;20695;-78
2023/05/11 09:46:43;;;;;;;2.33;1.80;;;16.00;93.10;;;;;;4954275;29;20039;-77
2023/05/11 09:49:11;;;;;;;2.88;2.20;;;16.00;92.70;;;;;;4953304;29;20031;-82
2023/05/11 09:51:39;;;;;;;3.58;1.73;;;16.20;93.00;;;;;;4954460;29;20106;-77
2023/05/11 09:54:25;;;;;;;2.58;2.38;;;16.10;92.90;;;;;;4953520;29;20480;-76
2023/05/11 09:56:59;;;;;;;2.58;2.08;;;16.10;92.60;;;;;;4947460;28;20020;-77
2023/05/11 09:59:38;;;;;;;3.88;2.17;;;16.00;92.90;;;;;;4935388;29;20079;-76
2023/05/11 10:02:22;;;;;;;3.65;2.65;;;15.60;93.60;;;;;;4934159;29;20114;-77
2023/05/11 10:04:56;;;;;;;5.57;2.55;;;15.30;93.90;;;;;;4934070;29;20485;-77
2023/05/11 10:07:34;;;;;;;2.67;1.85;;;15.20;94.60;;;;;;4934781;29;20032;-76
2023/05/11 10:10:00;;;;;;;3.80;2.22;;;15.30;96.40;;;;;;4934249;29;20433;-78
2023/05/11 10:12:29;;;;;;;3.03;1.98;;;15.20;95.80;;;;;;4934143;29;20055;-78
2023/05/11 10:15:05;;;;;;;3.17;2.25;;;15.20;96.60;;;;;;4941308;29;20035;-76
2023/05/11 10:17:32;;;;;;;3.60;2.55;;;15.10;96.40;;;;;;4953907;28;20041;-76
2023/05/11 10:19:58;;;;;;;2.60;2.40;;;15.00;98.20;;;;;;4954080;28;20524;-76
2023/05/11 10:22:26;;;;;;;3.67;2.55;;;15.10;99.20;;;;;;4954150;28;20050;-76
2023/05/11 10:24:52;;;;;;;4.95;2.35;;;14.90;99.90;;;;;;4954044;28;20028;-78
2023/05/11 10:27:18;;;;;;;7.65;2.55;;;14.90;99.90;;;;;;4953673;28;20023;-78
2023/05/11 10:29:45;;;;;;;3.75;2.50;;;14.80;99.90;;;;;;4953105;28;20074;-79
2023/05/11 10:32:11;;;;;;;4.32;2.25;;;14.70;99.90;;;;;;4954749;28;20504;-76
2023/05/11 10:34:40;;;;;;;2.92;2.42;;;14.50;99.90;;;;;;4953735;28;20027;-76
2023/05/11 10:37:08;;;;;;;8.60;3.22;;;14.40;99.90;;;;;;4952401;28;20027;-76
2023/05/11 10:39:37;;;;;;;4.30;2.55;;;14.40;99.90;;;;;;4952472;29;20492;-76
2023/05/11 10:42:11;;;;;;;2.20;1.83;;;14.40;99.90;;;;;;4953746;28;20023;-77
2023/05/11 10:44:46;;;;;;;5.90;3.33;;;14.50;99.90;;;;;;4952744;29;20031;-77
2023/05/11 10:47:22;;;;;;;4.13;2.28;;;14.40;99.90;;;;;;4953918;28;20027;-77
2023/05/11 10:49:48;;;;;;;4.80;2.85;;;14.40;99.90;;;;;;4954443;28;20028;-78
2023/05/11 10:52:39;;;;;;;2.90;2.22;;;14.50;99.90;;;;;;4947496;29;20034;-78
2023/05/11 10:55:14;;;;;;;10.07;3.17;;;14.50;99.90;;;;;;4984638;28;20031;-75
2023/05/11 10:57:47;;;;;;;4.63;2.55;;;14.40;99.90;;;;;;4953557;28;20027;-76
2023/05/11 11:00:42;;;;;;;4.22;3.13;;;14.30;99.90;;;;;;4953739;29;20558;-75
2023/05/11 11:03:12;;;;;;;4.20;2.55;;;14.20;99.90;;;;;;4953903;28;20571;-75
2023/05/11 11:05:39;;;;;;;6.05;2.65;;;14.20;99.90;;;;;;4953511;28;20024;-75
2023/05/11 11:08:07;;;;;;;4.40;2.60;;;14.10;99.90;;;;;;4953365;28;20031;-75
2023/05/11 11:10:34;;;;;;;4.25;2.78;;;14.00;99.90;;;;;;4952171;28;20476;-76
2023/05/11 11:13:07;;;;;;;7.28;2.83;;;13.90;99.90;;;;;;4956001;29;20038;-75
2023/05/11 11:15:55;;;;;;;6.70;2.60;;;13.80;99.90;;;;;;4957169;28;20385;-75
2023/05/11 11:18:25;;;;;;;7.85;3.10;;;13.70;99.90;;;;;;4957168;28;20023;-75
2023/05/11 11:20:52;;;;;;;2.95;2.30;;;13.70;99.90;;;;;;4957305;29;20052;-75
2023/05/11 11:23:42;;;;;;;4.50;2.80;;;13.60;99.90;;;;;;4957168;28;20408;-75
2023/05/11 11:26:10;;;;;;;4.53;2.97;;;13.70;99.90;;;;;;4955886;29;20082;-76
2023/05/11 11:28:56;;;;;;;3.67;2.92;;;13.80;99.90;;;;;;4956841;28;20484;-76
2023/05/11 11:31:26;;;;;;;3.63;2.30;;;13.70;99.90;;;;;;4957154;28;20484;-76
2023/05/11 11:33:57;;;;;;;3.55;2.50;;;13.80;99.90;;;;;;4956988;28;20023;-75
2023/05/11 11:36:54;;;;;;;5.53;2.83;;;13.90;99.90;;;;;;4956946;28;20035;-76
2023/05/11 11:39:24;;;;;;;;;;;13.90;99.90;;;;;;4957232;29;20023;-76
2023/05/11 11:42:08;;;;;;;4.28;3.00;;;14.00;99.90;;;;;;4955788;29;19928;-75
2023/05/11 11:44:34;;;;;;;4.20;2.88;;;14.00;99.90;;;;;;4955477;29;20067;-75
2023/05/11 11:47:20;;;;;;;3.92;3.00;;;14.10;99.90;;;;;;4955535;29;20027;-75
2023/05/11 11:49:46;;;;;;;5.03;2.88;;;14.10;99.90;;;;;;4956878;28;20028;-76
2023/05/11 11:52:13;;;;;;;4.72;3.10;;;14.20;99.90;;;;;;4956702;29;20030;-75
2023/05/11 11:54:41;;;;;;;3.10;2.53;;;14.10;99.90;;;;;;4955143;29;20032;-76
2023/05/11 11:57:32;;;;;;;4.53;2.67;;;14.20;99.90;;;;;;4956580;28;20031;-76
2023/05/11 12:00:05;;;;;;;3.00;2.40;;;14.20;99.90;;;;;;4947613;28;20063;-76
2023/05/11 12:02:32;;;;;;;3.28;2.70;;;14.30;99.90;;;;;;4956658;28;20094;-76
2023/05/11 12:05:00;;;;;;;3.90;2.90;;;14.40;99.90;;;;;;4955116;29;20023;-75
2023/05/11 12:07:32;;;;;;;3.05;2.30;;;14.40;99.90;;;;;;4954971;29;20456;-76
2023/05/11 12:10:01;;;;;;;3.28;2.97;;;14.30;99.90;;;;;;4956431;28;20028;-75
2023/05/11 12:12:27;;;;;;;3.72;2.40;;;14.30;99.90;;;;;;4955008;29;20407;-75
2023/05/11 12:14:53;;;;;;;5.38;2.42;;;14.30;99.90;;;;;;4956229;28;20071;-75
2023/05/11 12:17:28;;;;;;;2.92;2.05;;;14.30;99.90;;;;;;4955891;28;20028;-75
2023/05/11 12:19:54;;;;;;;2.67;2.43;;;14.30;99.90;;;;;;4956204;28;20413;-76
2023/05/11 12:22:24;;;;;;;8.20;2.70;;;14.30;99.90;;;;;;4954777;28;20258;-75
2023/05/11 12:24:53;;;;;;;4.55;2.33;;;14.30;99.90;;;;;;4956051;28;20020;-75
2023/05/11 12:27:19;;;;;;;2.78;2.40;;;14.20;99.90;;;;;;4955900;28;20027;-75
2023/05/11 12:29:49;;;;;;;3.00;2.70;;;14.20;99.90;;;;;;4954812;29;20389;-75
2023/05/11 12:32:26;;;;;;;4.38;2.05;;;14.20;99.90;;;;;;4956013;28;20551;-75
2023/05/11 12:35:03;;;;;;;3.53;2.10;;;14.20;99.90;;;;;;4954524;29;20118;-76
2023/05/11 12:37:30;;;;;;;3.67;2.30;;;14.10;99.90;;;;;;4955487;28;20388;-75
2023/05/11 12:39:56;;;;;;;2.85;2.55;;;13.90;99.90;;;;;;4953152;29;20035;-76
2023/05/11 12:42:22;;;;;;;2.33;2.13;;;14.00;99.90;;;;;;4953023;28;20119;-80
2023/05/11 12:44:51;;;;;;;3.58;2.15;;;14.10;99.90;;;;;;4954954;28;20121;-80
2023/05/11 12:47:17;;;;;;;3.17;2.50;;;14.10;99.90;;;;;;4964140;28;20061;-82
2023/05/11 12:49:43;;;;;;;3.47;2.90;;;14.40;99.90;;;;;;4975619;28;20023;-81
2023/05/11 12:52:10;;;;;;;4.32;2.50;;;14.20;99.90;;;;;;4955934;28;20027;-81
2023/05/11 12:54:37;;;;;;;1.98;1.77;;;14.10;99.90;;;;;;4959088;28;20028;-81